Time;durP1;ratioP1;P1;durP2;ratioP2;P2;SDS_P1;SDS_P2;PMS_P1;PMS_P2;Temp;Humidity;BMP_temperature;BMP_pressure;BME280_temperature;BME280_humidity;BME280_pressure;Samples;Min_cycle;Max_cycle;Signal;HPM_P1;HPM_P2
2021/04/06 00:01:55;;;;;;;6.97;3.33;;;1.10;99.90;;;;;;4322793;33;20396;-69
2021/04/06 00:04:24;;;;;;;11.13;3.80;;;1.10;99.90;;;;;;4318654;33;20211;-69
2021/04/06 00:06:54;;;;;;;8.47;3.90;;;1.10;99.90;;;;;;4321289;33;20145;-69
2021/04/06 00:09:23;;;;;;;10.77;4.10;;;1.10;99.90;;;;;;4322888;33;20154;-69
2021/04/06 00:11:53;;;;;;;9.03;3.77;;;1.10;99.90;;;;;;4321571;33;20188;-69
2021/04/06 00:14:20;;;;;;;9.73;3.80;;;1.10;99.90;;;;;;4321896;33;20171;-69
2021/04/06 00:16:49;;;;;;;6.93;3.53;;;1.20;99.90;;;;;;4322612;33;20157;-68
2021/04/06 00:19:18;;;;;;;13.37;3.70;;;1.10;99.90;;;;;;4322232;33;20200;-68
2021/04/06 00:21:49;;;;;;;7.50;3.90;;;1.10;99.90;;;;;;4322429;33;20157;-68
2021/04/06 00:24:22;;;;;;;6.73;3.33;;;1.10;99.90;;;;;;4322273;33;20152;-68
2021/04/06 00:26:55;;;;;;;8.30;3.37;;;1.20;99.90;;;;;;4320950;33;20149;-68
2021/04/06 00:29:25;;;;;;;8.77;3.60;;;1.20;99.90;;;;;;4322106;33;20154;-68
2021/04/06 00:31:56;;;;;;;8.67;4.00;;;1.20;99.90;;;;;;4319788;33;20208;-68
2021/04/06 00:34:24;;;;;;;9.17;4.00;;;1.20;99.90;;;;;;4322094;33;20161;-68
2021/04/06 00:36:56;;;;;;;6.60;3.53;;;1.20;99.90;;;;;;4322228;33;20171;-69
2021/04/06 00:39:35;;;;;;;8.57;3.67;;;1.20;99.90;;;;;;4322425;33;20153;-68
2021/04/06 00:42:15;;;;;;;8.40;4.10;;;1.20;99.90;;;;;;4320759;33;20518;-68
2021/04/06 00:44:48;;;;;;;9.63;3.80;;;1.10;99.90;;;;;;4322166;33;20541;-68
2021/04/06 00:47:22;;;;;;;8.70;3.60;;;1.10;99.90;;;;;;4321211;33;20441;-69
2021/04/06 00:49:48;;;;;;;10.07;3.70;;;1.10;99.90;;;;;;4311263;33;20214;-68
2021/04/06 00:52:16;;;;;;;7.53;3.90;;;1.10;99.90;;;;;;4307403;33;20187;-68
2021/04/06 00:54:42;;;;;;;9.43;4.03;;;1.10;99.90;;;;;;4307382;33;20187;-68
2021/04/06 00:57:13;;;;;;;7.13;3.50;;;1.10;99.90;;;;;;4306640;33;20149;-68
2021/04/06 01:00:14;;;;;;;8.17;3.80;;;1.10;99.90;;;;;;4305975;33;20449;-68
2021/04/06 01:03:14;;;;;;;8.10;3.80;;;1.00;99.90;;;;;;4306622;33;20148;-68
2021/04/06 01:05:59;;;;;;;7.00;3.50;;;1.00;99.90;;;;;;4321806;33;20148;-68
2021/04/06 01:08:31;;;;;;;7.97;3.63;;;1.10;99.90;;;;;;4320896;33;20195;-68
2021/04/06 01:10:59;;;;;;;8.27;3.50;;;1.00;99.90;;;;;;4320772;33;20171;-68
2021/04/06 01:13:26;;;;;;;7.83;3.30;;;1.00;99.90;;;;;;4321795;33;20398;-68
2021/04/06 01:15:54;;;;;;;6.33;3.40;;;1.00;99.90;;;;;;4322198;33;20184;-68
2021/04/06 01:18:22;;;;;;;7.53;3.30;;;1.00;99.90;;;;;;4320973;33;20152;-68
2021/04/06 01:20:49;;;;;;;9.53;3.53;;;1.00;99.90;;;;;;4321951;33;20380;-68
2021/04/06 01:23:18;;;;;;;10.50;3.70;;;1.00;99.90;;;;;;4320146;33;20161;-68
2021/04/06 01:25:48;;;;;;;9.47;3.53;;;1.00;99.90;;;;;;4321600;33;20196;-68
2021/04/06 01:28:15;;;;;;;8.37;3.50;;;0.90;99.90;;;;;;4321501;33;20145;-68
2021/04/06 01:30:49;;;;;;;6.90;3.40;;;0.90;99.90;;;;;;4321874;33;20364;-68
2021/04/06 01:33:18;;;;;;;9.47;4.03;;;0.80;99.90;;;;;;4321529;33;20145;-68
2021/04/06 01:35:53;;;;;;;8.53;3.60;;;0.80;99.90;;;;;;4321763;33;20153;-69
2021/04/06 01:38:25;;;;;;;10.50;3.60;;;0.80;99.90;;;;;;4321038;33;20413;-69
2021/04/06 01:40:57;;;;;;;7.37;3.10;;;0.80;99.90;;;;;;4321107;33;20172;-69
2021/04/06 01:43:27;;;;;;;7.93;3.67;;;0.70;99.90;;;;;;4320723;33;20211;-68
2021/04/06 01:45:58;;;;;;;8.63;3.53;;;0.70;99.90;;;;;;4321171;33;20537;-68
2021/04/06 01:48:28;;;;;;;11.37;3.40;;;0.70;99.90;;;;;;4321405;33;20153;-68
2021/04/06 01:50:57;;;;;;;6.47;3.17;;;0.70;99.90;;;;;;4321393;33;20157;-69
2021/04/06 01:53:24;;;;;;;9.93;3.63;;;0.60;99.90;;;;;;4321317;33;20418;-69
2021/04/06 01:55:58;;;;;;;7.93;3.10;;;0.60;99.90;;;;;;4320249;33;20153;-69
2021/04/06 01:58:27;;;;;;;8.23;3.20;;;0.60;99.90;;;;;;4321592;33;20191;-69
2021/04/06 02:03:36;;;;;;;10.93;3.37;;;0.70;99.90;;;;;;4319795;33;20235;-69
2021/04/06 02:06:04;;;;;;;7.60;3.13;;;0.70;99.90;;;;;;4321192;33;20150;-69
2021/04/06 02:08:31;;;;;;;7.50;3.33;;;0.70;99.90;;;;;;4319839;33;20184;-70
2021/04/06 02:10:58;;;;;;;7.50;3.17;;;0.80;99.90;;;;;;4321183;33;20149;-69
2021/04/06 02:13:25;;;;;;;7.33;3.30;;;0.80;99.90;;;;;;4319985;33;20183;-70
2021/04/06 02:15:56;;;;;;;5.57;3.00;;;0.80;99.90;;;;;;4320018;33;20467;-69
2021/04/06 02:18:24;;;;;;;6.07;3.20;;;0.80;99.90;;;;;;4321108;33;20153;-69
2021/04/06 02:20:59;;;;;;;6.37;3.00;;;0.80;99.90;;;;;;4321102;33;20232;-69
2021/04/06 02:23:35;;;;;;;6.90;3.20;;;0.80;99.90;;;;;;4321147;33;20160;-69
2021/04/06 02:26:02;;;;;;;6.27;2.83;;;0.80;99.90;;;;;;4320624;33;20445;-69
2021/04/06 02:28:28;;;;;;;6.90;3.00;;;0.80;99.90;;;;;;4319759;33;20157;-69
2021/04/06 02:31:00;;;;;;;8.57;3.17;;;0.80;99.90;;;;;;4321146;33;20456;-68
2021/04/06 02:33:33;;;;;;;6.77;3.03;;;0.90;99.90;;;;;;4321090;33;20153;-69
2021/04/06 02:36:06;;;;;;;7.93;3.10;;;0.90;99.90;;;;;;4320260;33;20160;-69
2021/04/06 02:38:35;;;;;;;5.37;2.67;;;0.90;99.90;;;;;;4321105;33;20189;-69
2021/04/06 02:41:18;;;;;;;7.00;2.67;;;0.90;99.90;;;;;;4320123;33;20157;-70
2021/04/06 02:43:54;;;;;;;6.27;2.93;;;1.00;99.90;;;;;;4319630;33;20201;-69
2021/04/06 02:46:24;;;;;;;6.30;3.07;;;1.00;99.90;;;;;;4319686;33;20145;-70
2021/04/06 02:48:53;;;;;;;7.97;2.77;;;0.90;99.90;;;;;;4319668;33;20476;-69
2021/04/06 02:51:19;;;;;;;5.47;2.40;;;0.90;99.90;;;;;;4321018;33;20206;-70
2021/04/06 02:53:50;;;;;;;5.97;2.60;;;0.90;99.90;;;;;;4320426;33;20153;-69
2021/04/06 02:56:49;;;;;;;6.67;2.30;;;1.00;99.90;;;;;;4322948;33;20149;-69
2021/04/06 02:59:19;;;;;;;7.40;2.73;;;1.00;99.90;;;;;;4292822;33;20161;-69
2021/04/06 03:01:47;;;;;;;7.70;2.53;;;1.00;99.90;;;;;;4291147;33;20158;-69
2021/04/06 03:04:18;;;;;;;5.80;2.70;;;0.90;99.90;;;;;;4290549;33;20169;-70
2021/04/06 03:06:45;;;;;;;5.40;2.83;;;0.90;99.90;;;;;;4290904;33;20173;-69
2021/04/06 03:09:13;;;;;;;5.70;2.40;;;0.90;99.90;;;;;;4291722;33;20153;-69
2021/04/06 03:11:51;;;;;;;6.27;2.37;;;0.90;99.90;;;;;;4291968;33;20548;-69
2021/04/06 03:14:25;;;;;;;5.93;2.33;;;0.90;99.90;;;;;;4290738;33;20181;-69
2021/04/06 03:16:53;;;;;;;6.53;2.43;;;1.00;99.90;;;;;;4292286;33;20161;-70
2021/04/06 03:19:30;;;;;;;6.23;1.97;;;1.00;99.90;;;;;;4290140;33;20498;-69
2021/04/06 03:21:57;;;;;;;5.10;2.07;;;0.90;99.90;;;;;;4290777;33;20216;-69
2021/04/06 03:24:29;;;;;;;5.23;2.67;;;0.90;99.90;;;;;;4292145;33;20161;-69
2021/04/06 03:27:02;;;;;;;6.47;2.77;;;0.90;99.90;;;;;;4292305;33;20161;-69
2021/04/06 03:29:30;;;;;;;6.87;2.40;;;0.90;99.90;;;;;;4291073;33;20381;-70
2021/04/06 03:31:57;;;;;;;4.33;2.30;;;0.90;99.90;;;;;;4290507;33;20447;-69
2021/04/06 03:34:34;;;;;;;9.03;2.30;;;0.90;99.90;;;;;;4301512;33;20153;-69
2021/04/06 03:37:03;;;;;;;7.03;2.53;;;0.90;99.90;;;;;;4321899;33;20192;-69
2021/04/06 03:39:35;;;;;;;4.90;2.40;;;0.90;99.90;;;;;;4323145;33;20357;-69
2021/04/06 03:42:02;;;;;;;4.97;2.47;;;0.90;99.90;;;;;;4323604;33;20176;-69
2021/04/06 03:44:30;;;;;;;6.70;2.57;;;0.90;99.90;;;;;;4323000;33;20157;-69
2021/04/06 03:47:06;;;;;;;7.57;2.80;;;0.70;99.90;;;;;;4323502;33;20157;-70
2021/04/06 03:49:33;;;;;;;5.10;2.60;;;0.70;99.90;;;;;;4321522;33;20204;-69
2021/04/06 03:52:09;;;;;;;4.87;2.30;;;0.70;99.90;;;;;;4322032;33;20554;-69
2021/04/06 03:54:41;;;;;;;6.00;2.53;;;0.70;99.90;;;;;;4322919;33;20501;-69
2021/04/06 04:00:09;;;;;;;8.23;2.90;;;0.60;99.90;;;;;;4322808;33;20393;-69
2021/04/06 04:02:36;;;;;;;7.17;2.60;;;0.50;99.90;;;;;;4322046;33;20385;-69
2021/04/06 04:05:03;;;;;;;5.23;2.60;;;0.60;99.90;;;;;;4321544;33;20161;-69
2021/04/06 04:07:37;;;;;;;5.60;2.80;;;0.60;99.90;;;;;;4321798;33;20165;-69
2021/04/06 04:10:06;;;;;;;5.90;2.47;;;0.60;99.90;;;;;;4322622;33;20204;-69
2021/04/06 04:12:32;;;;;;;4.13;2.37;;;0.60;99.90;;;;;;4322011;33;20473;-69
2021/04/06 04:14:59;;;;;;;6.17;3.03;;;0.50;99.90;;;;;;4322511;33;20153;-69
2021/04/06 04:17:25;;;;;;;6.73;2.73;;;0.50;99.90;;;;;;4321079;33;20145;-69
2021/04/06 04:19:54;;;;;;;8.27;2.60;;;0.50;99.90;;;;;;4322521;33;20145;-69
2021/04/06 04:22:21;;;;;;;6.77;2.70;;;0.50;99.90;;;;;;4321812;33;20153;-69
2021/04/06 04:24:47;;;;;;;3.83;2.50;;;0.50;99.90;;;;;;4322442;33;20204;-69
2021/04/06 04:27:13;;;;;;;6.17;2.60;;;0.50;99.90;;;;;;4322406;33;20477;-69
2021/04/06 04:29:40;;;;;;;5.97;2.33;;;0.60;99.90;;;;;;4321474;33;20149;-69
2021/04/06 04:32:13;;;;;;;7.40;2.87;;;0.60;99.90;;;;;;4320984;33;20157;-69
2021/04/06 04:34:40;;;;;;;6.77;2.63;;;0.60;99.90;;;;;;4322807;33;20149;-69
2021/04/06 04:37:06;;;;;;;6.17;2.50;;;0.60;99.90;;;;;;4321054;33;20205;-69
2021/04/06 04:39:33;;;;;;;9.23;2.50;;;0.70;99.90;;;;;;4321233;33;20180;-69
2021/04/06 04:42:00;;;;;;;8.03;2.70;;;0.80;99.90;;;;;;4321684;33;20496;-69
2021/04/06 04:44:26;;;;;;;7.77;2.60;;;0.80;99.90;;;;;;4322181;33;20154;-70
2021/04/06 04:46:52;;;;;;;6.37;2.60;;;0.80;99.90;;;;;;4322152;33;20188;-69
2021/04/06 04:49:19;;;;;;;10.30;3.23;;;0.80;99.90;;;;;;4320645;33;20145;-69
2021/04/06 04:51:45;;;;;;;6.00;2.80;;;0.80;99.90;;;;;;4322053;33;20166;-68
2021/04/06 04:54:11;;;;;;;7.43;2.63;;;0.90;99.90;;;;;;4321721;33;20204;-69
2021/04/06 04:56:38;;;;;;;6.30;2.77;;;0.90;99.90;;;;;;4322020;33;20200;-69
2021/04/06 04:59:04;;;;;;;6.07;2.80;;;0.90;99.90;;;;;;4320733;33;20563;-69
2021/04/06 05:01:31;;;;;;;9.80;3.10;;;1.10;99.90;;;;;;4321961;33;20487;-69
2021/04/06 05:03:57;;;;;;;5.00;2.60;;;1.20;99.90;;;;;;4320301;33;20236;-70
2021/04/06 05:06:24;;;;;;;5.33;2.77;;;1.20;99.90;;;;;;4320349;33;20453;-70
2021/04/06 05:08:50;;;;;;;7.30;2.93;;;1.30;99.90;;;;;;4320295;33;20156;-69
2021/04/06 05:11:17;;;;;;;7.10;2.90;;;1.30;99.90;;;;;;4320415;33;20209;-69
2021/04/06 05:13:44;;;;;;;7.47;3.17;;;1.40;99.90;;;;;;4320460;33;20184;-69
2021/04/06 05:16:10;;;;;;;8.43;3.03;;;1.30;99.90;;;;;;4320320;33;20152;-69
2021/04/06 05:18:36;;;;;;;7.33;3.20;;;1.30;99.90;;;;;;4321508;33;20196;-69
2021/04/06 05:21:03;;;;;;;6.07;2.80;;;1.30;99.90;;;;;;4320276;33;20396;-69
2021/04/06 05:23:29;;;;;;;10.23;3.13;;;1.30;99.90;;;;;;4320189;33;20154;-69
2021/04/06 05:25:55;;;;;;;8.87;3.47;;;1.30;99.90;;;;;;4322322;33;20204;-69
2021/04/06 05:28:22;;;;;;;4.67;3.00;;;1.40;99.90;;;;;;4320140;33;20160;-69
2021/04/06 05:30:49;;;;;;;7.43;2.90;;;1.40;99.90;;;;;;4321004;33;20232;-69
2021/04/06 05:33:19;;;;;;;6.23;3.20;;;1.50;99.90;;;;;;4321735;33;20175;-69
2021/04/06 05:35:45;;;;;;;8.10;3.17;;;1.60;99.90;;;;;;4321158;33;20183;-69
2021/04/06 05:38:12;;;;;;;8.03;3.30;;;1.70;99.90;;;;;;4320441;33;20176;-69
2021/04/06 05:40:38;;;;;;;7.47;3.17;;;1.70;99.90;;;;;;4320032;33;20200;-69
2021/04/06 05:43:05;;;;;;;9.03;3.23;;;1.70;99.90;;;;;;4320017;33;20153;-69
2021/04/06 05:45:33;;;;;;;7.63;3.10;;;1.70;99.90;;;;;;4321312;33;20452;-69
2021/04/06 05:48:02;;;;;;;8.27;3.33;;;1.70;99.90;;;;;;4320556;33;20149;-69
2021/04/06 05:50:29;;;;;;;10.13;3.63;;;1.70;99.90;;;;;;4321291;33;20149;-70
2021/04/06 05:52:56;;;;;;;12.27;3.70;;;1.70;99.90;;;;;;4319449;33;20154;-69
2021/04/06 05:55:22;;;;;;;9.47;3.53;;;1.70;99.90;;;;;;4321272;33;20174;-69
2021/04/06 05:57:49;;;;;;;9.03;3.80;;;1.70;99.90;;;;;;4319868;33;20149;-69
2021/04/06 06:00:16;;;;;;;9.20;3.97;;;1.80;99.90;;;;;;4320141;33;20411;-69
2021/04/06 06:02:43;;;;;;;9.70;4.00;;;1.80;99.90;;;;;;4321279;33;20177;-69
2021/04/06 06:05:09;;;;;;;8.57;4.17;;;1.80;99.90;;;;;;4320759;33;20172;-69
2021/04/06 06:07:36;;;;;;;6.13;4.27;;;1.80;99.90;;;;;;4319060;33;20153;-69
2021/04/06 06:10:32;;;;;;;7.03;3.83;;;1.80;99.90;;;;;;4320882;33;20208;-69
2021/04/06 06:13:25;;;;;;;10.50;4.40;;;1.80;99.90;;;;;;4317691;33;20185;-69
2021/04/06 06:16:24;;;;;;;10.37;4.17;;;1.80;99.90;;;;;;4321394;33;20149;-69
2021/04/06 06:19:02;;;;;;;9.90;4.57;;;1.80;99.90;;;;;;4319760;33;20175;-69
2021/04/06 06:21:47;;;;;;;12.40;4.30;;;1.80;99.90;;;;;;4319678;33;20149;-69
2021/04/06 06:24:32;;;;;;;6.93;3.70;;;1.90;99.90;;;;;;4319620;33;20179;-69
2021/04/06 06:26:59;;;;;;;9.40;4.00;;;1.90;99.90;;;;;;4319747;33;20235;-69
2021/04/06 06:29:41;;;;;;;9.80;3.90;;;1.90;99.90;;;;;;4320817;33;20186;-69
2021/04/06 06:32:19;;;;;;;10.30;4.10;;;1.80;99.90;;;;;;4322580;33;20172;-69
2021/04/06 06:34:46;;;;;;;11.73;4.07;;;1.80;99.90;;;;;;4323908;33;20172;-69
2021/04/06 06:37:26;;;;;;;10.63;4.03;;;1.70;99.90;;;;;;4323881;33;20156;-69
2021/04/06 06:40:05;;;;;;;10.13;3.97;;;1.70;99.90;;;;;;4322045;33;20191;-69
2021/04/06 06:42:35;;;;;;;6.70;3.80;;;1.80;99.90;;;;;;4323945;33;20157;-69
2021/04/06 06:45:22;;;;;;;9.80;3.97;;;1.80;99.90;;;;;;4323616;33;20233;-69
2021/04/06 06:47:56;;;;;;;9.23;3.90;;;1.80;99.90;;;;;;4323787;33;20204;-69
2021/04/06 06:50:25;;;;;;;10.80;4.00;;;1.70;99.90;;;;;;4323509;33;20152;-69
2021/04/06 06:52:56;;;;;;;7.73;4.00;;;1.70;99.90;;;;;;4322288;33;20382;-69
2021/04/06 06:55:25;;;;;;;8.07;4.30;;;1.70;99.90;;;;;;4322017;33;20154;-69
2021/04/06 06:58:02;;;;;;;7.57;3.93;;;1.70;99.90;;;;;;4322210;33;20149;-69
2021/04/06 07:00:29;;;;;;;13.93;4.50;;;1.80;99.90;;;;;;4321836;33;20360;-69
2021/04/06 07:02:55;;;;;;;9.03;4.17;;;1.90;99.90;;;;;;4323559;33;20479;-69
2021/04/06 07:05:27;;;;;;;13.43;4.70;;;1.90;99.90;;;;;;4321941;33;20310;-69
2021/04/06 07:07:55;;;;;;;8.13;4.43;;;1.90;99.90;;;;;;4322928;33;20149;-69
2021/04/06 07:10:46;;;;;;;12.23;4.27;;;1.90;99.90;;;;;;4323345;33;20200;-69
2021/04/06 07:13:21;;;;;;;16.60;4.20;;;1.80;99.90;;;;;;4322786;33;20225;-69
2021/04/06 07:15:49;;;;;;;13.83;4.20;;;1.80;99.90;;;;;;4323347;33;20208;-69
2021/04/06 07:18:19;;;;;;;14.30;4.27;;;1.70;99.90;;;;;;4323199;33;20196;-69
2021/04/06 07:20:54;;;;;;;9.50;4.37;;;1.80;99.90;;;;;;4322335;33;20167;-69
2021/04/06 07:23:37;;;;;;;13.57;4.87;;;1.80;99.90;;;;;;4323292;33;20179;-69
2021/04/06 07:26:14;;;;;;;10.93;4.40;;;1.90;99.90;;;;;;4322983;33;20217;-69
2021/04/06 07:28:41;;;;;;;12.63;4.47;;;1.90;99.90;;;;;;4321705;33;20467;-70
2021/04/06 07:31:10;;;;;;;11.27;4.40;;;2.00;99.90;;;;;;4321578;33;20148;-70
2021/04/06 07:33:39;;;;;;;10.23;3.97;;;2.10;99.90;;;;;;4318159;33;21120;-70
2021/04/06 07:36:10;;;;;;;13.57;4.27;;;2.20;99.90;;;;;;4320480;33;20519;-69
2021/04/06 07:38:48;;;;;;;10.37;3.83;;;2.20;99.90;;;;;;4321242;33;20220;-69
2021/04/06 07:41:17;;;;;;;11.07;4.53;;;2.20;99.90;;;;;;4321528;33;20251;-69
2021/04/06 07:43:46;;;;;;;12.03;4.07;;;2.20;99.90;;;;;;4320383;33;20193;-70
2021/04/06 07:46:34;;;;;;;10.03;3.80;;;2.30;99.90;;;;;;4319280;33;20149;-70
2021/04/06 07:49:03;;;;;;;11.83;3.53;;;2.50;99.90;;;;;;4321855;33;20183;-69
2021/04/06 07:51:31;;;;;;;11.87;3.93;;;2.60;99.90;;;;;;4321477;33;20180;-70
2021/04/06 07:54:07;;;;;;;15.20;4.27;;;2.50;99.90;;;;;;4322645;33;20161;-69
2021/04/06 07:57:00;;;;;;;11.13;3.70;;;2.30;99.90;;;;;;4322307;33;20160;-68
2021/04/06 07:59:26;;;;;;;10.30;3.80;;;2.20;99.90;;;;;;4322627;33;20228;-69
2021/04/06 08:01:56;;;;;;;7.80;3.47;;;2.30;99.90;;;;;;4322766;33;20353;-69
2021/04/06 08:04:23;;;;;;;8.17;3.63;;;2.40;99.90;;;;;;4320779;33;20178;-69
2021/04/06 08:06:57;;;;;;;11.03;4.03;;;2.50;99.90;;;;;;4316893;33;20507;-69
2021/04/06 08:09:34;;;;;;;13.20;3.77;;;2.50;99.90;;;;;;4321957;33;20606;-69
2021/04/06 08:12:06;;;;;;;8.07;3.60;;;2.60;99.90;;;;;;4322289;33;20464;-70
2021/04/06 08:14:37;;;;;;;9.80;3.97;;;2.70;99.90;;;;;;4322689;33;20200;-69
2021/04/06 08:17:31;;;;;;;11.63;3.97;;;2.70;99.90;;;;;;4322495;33;20157;-69
2021/04/06 08:20:15;;;;;;;9.17;3.60;;;2.80;99.90;;;;;;4320976;33;20194;-69
2021/04/06 08:22:56;;;;;;;9.27;3.40;;;2.70;99.90;;;;;;4320674;33;20161;-69
2021/04/06 08:25:23;;;;;;;12.30;3.33;;;2.60;99.90;;;;;;4321996;33;20157;-69
2021/04/06 08:27:51;;;;;;;8.37;3.50;;;2.40;99.90;;;;;;4322170;33;20278;-70
2021/04/06 08:30:27;;;;;;;12.13;3.30;;;2.50;99.90;;;;;;4322118;33;20172;-70
2021/04/06 08:33:02;;;;;;;12.50;3.67;;;2.50;99.90;;;;;;4322020;33;20169;-70
2021/04/06 08:38:20;;;;;;;14.40;4.23;;;2.40;99.90;;;;;;4321901;33;20257;-69
2021/04/06 08:40:47;;;;;;;10.40;4.27;;;2.60;99.90;;;;;;4322017;33;20216;-70
2021/04/06 08:43:22;;;;;;;12.90;3.67;;;2.60;99.90;;;;;;4310440;33;20511;-70
2021/04/06 08:45:53;;;;;;;12.97;4.37;;;2.70;99.90;;;;;;4301181;33;20181;-70
2021/04/06 08:48:51;;;;;;;11.80;3.97;;;2.70;99.90;;;;;;4303711;33;20217;-71
2021/04/06 08:51:25;;;;;;;12.80;3.57;;;2.80;99.90;;;;;;4304234;33;20212;-71
2021/04/06 08:54:13;;;;;;;9.97;3.83;;;2.80;99.90;;;;;;4304572;33;20147;-70
2021/04/06 08:56:54;;;;;;;12.10;4.27;;;3.00;99.90;;;;;;4307287;33;20184;-70
2021/04/06 08:59:24;;;;;;;9.33;3.87;;;3.00;99.90;;;;;;4307449;33;20157;-70
2021/04/06 09:01:55;;;;;;;11.73;4.13;;;3.10;99.90;;;;;;4307262;33;20157;-70
2021/04/06 09:04:25;;;;;;;9.13;3.80;;;3.00;99.90;;;;;;4321997;33;20168;-71
2021/04/06 09:06:51;;;;;;;12.77;4.00;;;3.10;99.90;;;;;;4334947;33;20176;-71
2021/04/06 09:09:29;;;;;;;13.87;3.70;;;3.10;99.90;;;;;;4334848;33;20168;-71
2021/04/06 09:12:00;;;;;;;12.03;4.00;;;3.20;99.30;;;;;;4335816;33;20186;-71
2021/04/06 09:14:29;;;;;;;12.27;3.40;;;3.00;99.90;;;;;;4334947;33;20154;-70
2021/04/06 09:16:56;;;;;;;14.70;4.10;;;3.10;99.50;;;;;;4336407;33;20200;-71
2021/04/06 09:19:24;;;;;;;16.37;3.93;;;2.90;99.90;;;;;;4334704;33;20542;-71
2021/04/06 09:21:56;;;;;;;11.40;3.80;;;2.90;99.90;;;;;;4334238;33;20155;-71
2021/04/06 09:24:25;;;;;;;12.20;4.40;;;3.00;99.90;;;;;;4322023;33;20220;-71
2021/04/06 09:26:54;;;;;;;12.20;4.40;;;3.10;99.90;;;;;;4319116;33;20188;-71
2021/04/06 09:29:22;;;;;;;11.37;4.17;;;3.00;99.50;;;;;;4320090;33;20149;-71
2021/04/06 09:31:57;;;;;;;15.73;4.10;;;3.00;99.50;;;;;;4320118;33;20175;-67
2021/04/06 09:34:33;;;;;;;9.13;4.00;;;3.00;99.90;;;;;;4321623;33;20144;-67
2021/04/06 09:37:18;;;;;;;13.83;4.67;;;3.00;99.90;;;;;;4319983;33;20518;-67
2021/04/06 09:39:47;;;;;;;14.77;4.90;;;3.00;99.90;;;;;;4321358;33;20279;-67
2021/04/06 09:42:14;;;;;;;12.13;4.33;;;3.00;99.90;;;;;;4320518;33;20171;-70
2021/04/06 09:44:43;;;;;;;10.27;3.90;;;3.00;99.90;;;;;;4320610;33;20153;-70
2021/04/06 09:47:21;;;;;;;16.03;4.00;;;3.20;99.90;;;;;;4321480;33;20173;-70
2021/04/06 09:49:51;;;;;;;11.20;4.10;;;3.30;99.60;;;;;;4320766;33;20200;-70
2021/04/06 09:52:23;;;;;;;15.83;4.83;;;3.30;99.80;;;;;;4321056;33;20149;-70
2021/04/06 09:54:55;;;;;;;13.60;4.10;;;3.60;99.40;;;;;;4319541;33;20553;-70
2021/04/06 09:57:32;;;;;;;9.23;4.10;;;3.50;99.30;;;;;;4320897;33;20223;-70
2021/04/06 09:59:59;;;;;;;14.37;4.10;;;3.70;98.80;;;;;;4321197;33;20149;-71
2021/04/06 10:02:28;;;;;;;11.63;4.20;;;3.90;98.50;;;;;;4321727;33;20197;-70
2021/04/06 10:04:55;;;;;;;12.87;4.27;;;3.80;97.00;;;;;;4321513;33;20199;-71
2021/04/06 10:07:25;;;;;;;13.47;4.33;;;3.70;96.40;;;;;;4324233;33;20157;-71
2021/04/06 10:09:53;;;;;;;12.50;3.83;;;3.60;96.90;;;;;;4322932;33;20157;-71
2021/04/06 10:12:21;;;;;;;12.23;4.00;;;3.80;96.80;;;;;;4322776;33;20220;-72
2021/04/06 10:14:49;;;;;;;11.40;3.43;;;3.80;96.60;;;;;;4322635;33;20172;-71
2021/04/06 10:17:21;;;;;;;9.80;3.63;;;3.80;96.50;;;;;;4322666;33;20145;-72
2021/04/06 10:20:14;;;;;;;12.10;3.90;;;3.80;95.40;;;;;;4324146;33;20176;-71
2021/04/06 10:22:42;;;;;;;9.67;3.70;;;3.80;95.60;;;;;;4323792;33;20200;-71
2021/04/06 10:25:11;;;;;;;8.83;3.50;;;3.80;94.80;;;;;;4322488;33;20180;-71
2021/04/06 10:27:41;;;;;;;7.50;3.37;;;4.00;95.20;;;;;;4320376;33;20594;-71
2021/04/06 10:30:12;;;;;;;13.70;3.77;;;4.20;94.10;;;;;;4323519;33;20217;-71
2021/04/06 10:32:44;;;;;;;12.17;3.70;;;4.00;93.90;;;;;;4323628;33;20240;-72
2021/04/06 10:35:24;;;;;;;9.53;3.43;;;4.20;93.40;;;;;;4322075;33;20221;-72
2021/04/06 10:37:55;;;;;;;8.50;3.20;;;4.40;92.70;;;;;;4323272;33;20203;-71
2021/04/06 10:40:58;;;;;;;9.67;3.23;;;4.10;92.00;;;;;;4310574;33;20160;-71
2021/04/06 10:43:24;;;;;;;11.97;3.90;;;4.00;91.80;;;;;;4321628;33;20335;-71
2021/04/06 10:45:58;;;;;;;14.07;4.27;;;3.90;93.00;;;;;;4321401;33;20444;-71
2021/04/06 10:48:27;;;;;;;12.20;3.93;;;3.70;94.10;;;;;;4321129;33;20652;-71
2021/04/06 10:51:09;;;;;;;13.63;4.30;;;3.60;94.90;;;;;;4322454;33;20157;-71
2021/04/06 10:53:49;;;;;;;14.83;4.77;;;3.50;95.20;;;;;;4322388;33;20163;-71
2021/04/06 10:56:19;;;;;;;9.63;4.17;;;3.30;96.20;;;;;;4323430;33;20179;-72
2021/04/06 10:58:54;;;;;;;11.27;4.80;;;3.30;96.50;;;;;;4323460;33;20185;-71
2021/04/06 11:01:24;;;;;;;8.43;4.00;;;3.30;96.10;;;;;;4322642;33;20189;-69
2021/04/06 11:03:56;;;;;;;8.33;4.13;;;3.30;96.20;;;;;;4320062;33;20200;-70
2021/04/06 11:06:31;;;;;;;7.37;3.50;;;3.20;96.30;;;;;;4320788;33;20169;-70
2021/04/06 11:08:59;;;;;;;11.63;3.70;;;3.20;96.60;;;;;;4321491;33;20248;-69
2021/04/06 11:11:32;;;;;;;11.07;3.90;;;3.00;96.20;;;;;;4322646;33;20146;-69
2021/04/06 11:14:09;;;;;;;10.70;3.87;;;3.10;95.50;;;;;;4321291;33;20172;-68
2021/04/06 11:16:38;;;;;;;10.27;3.83;;;3.10;95.40;;;;;;4322224;33;20187;-67
2021/04/06 11:19:12;;;;;;;9.53;3.27;;;3.20;95.20;;;;;;4323140;33;20469;-67
2021/04/06 11:21:51;;;;;;;8.03;3.73;;;3.40;94.80;;;;;;4323206;33;20216;-67
2021/04/06 11:24:19;;;;;;;10.03;3.70;;;3.30;95.20;;;;;;4321960;33;20161;-67
2021/04/06 11:26:47;;;;;;;11.57;3.77;;;3.30;94.90;;;;;;4321517;33;20153;-70
2021/04/06 11:29:21;;;;;;;11.67;3.03;;;3.50;94.10;;;;;;4322279;33;20177;-70
2021/04/06 11:31:50;;;;;;;11.17;3.23;;;3.40;92.70;;;;;;4321792;33;20145;-70
2021/04/06 11:34:17;;;;;;;10.23;3.30;;;3.30;92.60;;;;;;4322072;33;20153;-71
2021/04/06 11:36:46;;;;;;;9.23;3.40;;;3.40;91.60;;;;;;4321187;33;20261;-70
2021/04/06 11:39:14;;;;;;;9.53;3.33;;;3.20;91.50;;;;;;4322658;33;20146;-71
2021/04/06 11:41:43;;;;;;;7.97;3.20;;;3.20;91.30;;;;;;4321543;33;20149;-71
2021/04/06 11:44:11;;;;;;;8.87;3.00;;;3.40;90.40;;;;;;4322594;33;20217;-70
2021/04/06 11:46:39;;;;;;;8.27;3.27;;;3.70;90.20;;;;;;4320609;33;20149;-72
2021/04/06 11:49:07;;;;;;;9.00;3.00;;;3.90;87.90;;;;;;4321148;33;20154;-71
2021/04/06 11:51:35;;;;;;;7.27;2.90;;;4.30;85.20;;;;;;4320958;33;20150;-71
2021/04/06 11:54:02;;;;;;;11.17;3.60;;;4.60;83.20;;;;;;4321127;33;20532;-71
2021/04/06 11:56:28;;;;;;;8.67;3.00;;;4.50;81.50;;;;;;4320636;33;20171;-71
2021/04/06 11:59:02;;;;;;;11.80;3.10;;;4.50;81.30;;;;;;4320881;33;20149;-70
2021/04/06 12:01:31;;;;;;;9.57;3.17;;;4.70;80.90;;;;;;4321073;33;20149;-71
2021/04/06 12:03:58;;;;;;;5.17;2.67;;;4.50;78.70;;;;;;4320846;33;20173;-71
2021/04/06 12:06:25;;;;;;;7.43;2.60;;;4.60;77.70;;;;;;4322112;33;20185;-71
2021/04/06 12:08:52;;;;;;;5.70;2.37;;;4.60;75.30;;;;;;4321042;33;20142;-70
2021/04/06 12:11:19;;;;;;;6.87;2.50;;;4.40;73.80;;;;;;4307534;33;20178;-71
2021/04/06 12:13:46;;;;;;;7.77;2.53;;;4.20;73.90;;;;;;4321171;33;20165;-75
2021/04/06 12:16:13;;;;;;;6.07;2.57;;;4.40;73.40;;;;;;4321510;33;20165;-69
2021/04/06 12:18:39;;;;;;;7.23;2.60;;;4.50;74.60;;;;;;4322040;33;20205;-70
2021/04/06 12:21:09;;;;;;;5.53;2.50;;;4.40;72.70;;;;;;4321316;33;20150;-71
2021/04/06 12:23:37;;;;;;;7.90;2.30;;;4.40;71.30;;;;;;4321444;33;20141;-72
2021/04/06 12:26:04;;;;;;;6.37;2.37;;;4.40;71.20;;;;;;4320963;33;20162;-71
2021/04/06 12:28:30;;;;;;;7.67;2.87;;;4.30;71.10;;;;;;4321573;33;20186;-67
2021/04/06 12:30:57;;;;;;;5.70;2.47;;;4.20;70.70;;;;;;4322205;33;20147;-67
2021/04/06 12:33:23;;;;;;;7.40;2.83;;;4.20;70.10;;;;;;4322266;33;20185;-67
2021/04/06 12:35:50;;;;;;;9.17;2.90;;;4.20;69.90;;;;;;4320897;33;20517;-67
2021/04/06 12:38:16;;;;;;;4.87;2.63;;;4.50;70.30;;;;;;4321858;33;20189;-67
2021/04/06 12:40:43;;;;;;;7.33;2.80;;;4.60;69.30;;;;;;4321676;33;20416;-66
2021/04/06 12:43:09;;;;;;;9.23;2.57;;;4.60;69.50;;;;;;4321306;33;20145;-66
2021/04/06 12:45:36;;;;;;;5.83;2.57;;;4.40;68.70;;;;;;4320973;33;20180;-67
2021/04/06 12:48:03;;;;;;;9.10;3.30;;;4.50;70.00;;;;;;4320666;33;20471;-66
2021/04/06 12:50:29;;;;;;;6.47;3.00;;;4.50;70.40;;;;;;4321014;33;20145;-66
2021/04/06 12:52:56;;;;;;;4.30;2.60;;;4.40;70.80;;;;;;4321218;33;20153;-66
2021/04/06 12:55:23;;;;;;;8.57;2.80;;;4.30;71.80;;;;;;4320676;33;20153;-67
2021/04/06 12:57:50;;;;;;;6.17;2.80;;;4.40;72.60;;;;;;4320619;33;20150;-67
2021/04/06 13:00:17;;;;;;;7.90;2.77;;;4.40;71.50;;;;;;4321804;33;20221;-67
2021/04/06 13:02:43;;;;;;;7.23;2.87;;;4.50;72.80;;;;;;4320730;33;20175;-67
2021/04/06 13:05:10;;;;;;;7.30;2.97;;;4.80;71.90;;;;;;4321102;33;20217;-67
2021/04/06 13:07:37;;;;;;;8.33;2.50;;;4.80;72.10;;;;;;4320554;33;20169;-66
2021/04/06 13:10:04;;;;;;;7.50;2.83;;;4.70;72.50;;;;;;4320316;33;20432;-66
2021/04/06 13:12:31;;;;;;;7.80;2.80;;;4.80;73.00;;;;;;4319591;33;20149;-70
2021/04/06 13:14:58;;;;;;;7.80;2.90;;;4.90;73.00;;;;;;4320204;33;20175;-69
2021/04/06 13:17:26;;;;;;;7.80;2.80;;;4.60;73.00;;;;;;4320734;33;20173;-69
2021/04/06 13:19:53;;;;;;;5.30;2.17;;;4.50;72.50;;;;;;4321324;33;20194;-68
2021/04/06 13:22:20;;;;;;;8.50;3.03;;;4.20;72.70;;;;;;4321632;33;20141;-69